createdAt,value
2023-04-18T00:02:07.113Z,0.40
2023-04-18T00:04:35.948Z,0.50
2023-04-18T00:07:06.536Z,0.47
2023-04-18T00:09:37.650Z,0.40
2023-04-18T00:12:08.159Z,0.30
2023-04-18T00:14:38.385Z,0.40
2023-04-18T00:17:18.705Z,0.40
2023-04-18T00:19:49.029Z,0.40
2023-04-18T00:22:22.628Z,0.40
2023-04-18T00:24:54.815Z,0.50
2023-04-18T00:27:29.249Z,0.40
2023-04-18T00:30:01.027Z,0.50
2023-04-18T00:32:30.106Z,0.50
2023-04-18T00:34:58.088Z,0.50
2023-04-18T00:37:28.914Z,0.43
2023-04-18T00:39:57.359Z,0.50
2023-04-18T00:42:27.972Z,0.50
2023-04-18T00:44:57.022Z,0.43
2023-04-18T00:47:25.086Z,0.40
2023-04-18T00:49:53.120Z,0.40
2023-04-18T00:52:22.048Z,0.40
2023-04-18T00:54:51.674Z,0.40
2023-04-18T00:57:19.624Z,0.50
2023-04-18T00:59:48.055Z,0.50
2023-04-18T01:02:17.381Z,0.40
2023-04-18T01:04:45.374Z,0.50
2023-04-18T01:07:13.716Z,0.40
2023-04-18T01:09:42.185Z,0.50
2023-04-18T01:12:11.511Z,0.33
2023-04-18T01:14:43.215Z,0.40
2023-04-18T01:17:11.351Z,0.40
2023-04-18T01:19:39.418Z,0.40
2023-04-18T01:22:08.898Z,0.40
2023-04-18T01:24:38.294Z,0.40
2023-04-18T01:27:07.195Z,0.40
2023-04-18T01:29:36.293Z,0.40
2023-04-18T01:32:06.223Z,0.40
2023-04-18T01:34:34.098Z,0.43
2023-04-18T01:37:02.994Z,0.40
2023-04-18T01:39:31.050Z,0.50
2023-04-18T01:42:02.896Z,0.40
2023-04-18T01:44:30.828Z,0.50
2023-04-18T01:47:06.003Z,0.47
2023-04-18T01:49:33.990Z,0.50
2023-04-18T01:52:01.913Z,0.40
2023-04-18T01:54:30.976Z,0.57
2023-04-18T01:57:00.400Z,0.30
2023-04-18T01:59:29.448Z,0.40
2023-04-18T02:01:57.512Z,0.50
2023-04-18T02:04:26.796Z,0.47
2023-04-18T02:06:54.785Z,0.50
2023-04-18T02:09:22.898Z,0.43
2023-04-18T02:11:50.913Z,0.40
2023-04-18T02:14:21.190Z,0.50
2023-04-18T02:16:49.140Z,0.50
2023-04-18T02:19:17.555Z,0.40
2023-04-18T02:21:45.743Z,0.50
2023-04-18T02:24:14.211Z,0.50
2023-04-18T02:26:42.348Z,0.40
2023-04-18T02:29:10.762Z,0.50
2023-04-18T02:31:42.129Z,0.40
2023-04-18T02:34:10.822Z,0.40
2023-04-18T02:36:38.835Z,0.40
2023-04-18T02:39:06.991Z,0.50
2023-04-18T02:41:37.684Z,0.40
2023-04-18T02:44:05.708Z,0.43
2023-04-18T02:46:34.596Z,0.50
2023-04-18T02:49:04.290Z,0.50
2023-04-18T02:51:32.436Z,0.40
2023-04-18T02:54:00.872Z,0.40
2023-04-18T02:56:28.908Z,0.40
2023-04-18T02:58:56.728Z,0.40
2023-04-18T03:01:24.648Z,0.43
2023-04-18T03:03:53.615Z,0.50
2023-04-18T03:06:22.991Z,0.40
2023-04-18T03:08:51.824Z,0.50
2023-04-18T03:11:19.758Z,0.40
2023-04-18T03:13:47.681Z,0.50
2023-04-18T03:16:16.600Z,0.50
2023-04-18T03:18:44.677Z,0.40
2023-04-18T03:21:12.907Z,0.30
2023-04-18T03:23:42.545Z,0.43
2023-04-18T03:26:12.643Z,0.40
2023-04-18T03:28:40.773Z,0.30
2023-04-18T03:31:08.683Z,0.50
2023-04-18T03:33:36.693Z,0.40
2023-04-18T03:36:04.905Z,0.30
2023-04-18T03:38:32.823Z,0.40
2023-04-18T03:41:02.093Z,0.40
2023-04-18T03:43:30.591Z,0.40
2023-04-18T03:45:58.779Z,0.30
2023-04-18T03:48:26.874Z,0.40
2023-04-18T03:50:55.052Z,0.33
2023-04-18T03:53:22.919Z,0.40
2023-04-18T03:55:51.259Z,0.50
2023-04-18T03:58:24.688Z,0.40
2023-04-18T04:00:53.074Z,0.50
2023-04-18T04:03:21.217Z,0.50
2023-04-18T04:05:49.601Z,0.40
2023-04-18T04:08:17.893Z,0.40
2023-04-18T04:10:47.780Z,0.40
2023-04-18T04:13:15.669Z,0.40
2023-04-18T04:15:46.005Z,0.43
2023-04-18T04:18:31.378Z,0.60
2023-04-18T04:21:12.462Z,0.40
2023-04-18T04:23:48.172Z,0.40
2023-04-18T04:26:15.935Z,0.50
2023-04-18T04:28:47.799Z,0.50
2023-04-18T04:31:24.359Z,0.40
2023-04-18T04:34:00.531Z,0.40
2023-04-18T04:36:29.821Z,0.50
2023-04-18T04:38:57.820Z,0.40
2023-04-18T04:41:33.258Z,0.50
2023-04-18T04:44:04.100Z,0.37
2023-04-18T04:46:35.035Z,0.40
2023-04-18T04:49:03.530Z,0.50
2023-04-18T04:51:31.751Z,0.40
2023-04-18T04:53:59.818Z,0.40
2023-04-18T04:56:27.828Z,0.40
2023-04-18T04:58:56.206Z,0.40
2023-04-18T05:01:24.390Z,0.40
2023-04-18T05:03:54.857Z,0.30
2023-04-18T05:06:25.612Z,0.50
2023-04-18T05:08:53.973Z,0.33
2023-04-18T05:11:23.076Z,0.40
2023-04-18T05:13:51.378Z,0.50
2023-04-18T05:16:19.819Z,0.43
2023-04-18T05:18:48.764Z,0.40
2023-04-18T05:21:18.123Z,0.40
2023-04-18T05:23:46.416Z,0.30
2023-04-18T05:26:14.332Z,0.30
2023-04-18T05:28:42.718Z,0.40
2023-04-18T05:31:11.333Z,0.40
2023-04-18T05:33:40.333Z,0.40
2023-04-18T05:36:08.877Z,0.47
2023-04-18T05:38:39.152Z,0.30
2023-04-18T05:41:07.258Z,0.30
2023-04-18T05:43:35.070Z,0.40
2023-04-18T05:46:03.101Z,0.30
2023-04-18T05:48:31.494Z,0.40
2023-04-18T05:51:00.432Z,0.33
2023-04-18T05:53:28.640Z,0.40
2023-04-18T05:55:59.055Z,0.30
2023-04-18T05:58:28.855Z,0.40
2023-04-18T06:00:57.005Z,0.40
2023-04-18T06:03:25.169Z,0.40
2023-04-18T06:05:53.371Z,0.50
2023-04-18T06:08:22.406Z,0.40
2023-04-18T06:10:50.471Z,0.30
2023-04-18T06:13:19.815Z,0.37
2023-04-18T06:15:48.260Z,0.30
2023-04-18T06:18:16.412Z,0.40
2023-04-18T06:20:45.303Z,0.30
2023-04-18T06:23:13.288Z,0.30
2023-04-18T06:25:42.683Z,0.37
2023-04-18T06:28:10.641Z,0.37
2023-04-18T06:30:39.878Z,0.30
2023-04-18T06:33:10.450Z,0.30
2023-04-18T06:35:39.453Z,0.30
2023-04-18T06:38:07.437Z,0.30
2023-04-18T06:40:35.446Z,0.30
2023-04-18T06:43:04.130Z,0.30
2023-04-18T06:45:32.937Z,0.30
2023-04-18T06:48:04.247Z,0.30
2023-04-18T06:50:32.798Z,0.20
2023-04-18T06:53:00.818Z,0.30
2023-04-18T06:55:30.985Z,0.30
2023-04-18T06:58:00.464Z,0.30
2023-04-18T07:00:29.668Z,0.30
2023-04-18T07:03:02.165Z,0.30
2023-04-18T07:05:32.580Z,0.20
2023-04-18T07:08:00.427Z,0.20
2023-04-18T07:10:35.579Z,0.30
2023-04-18T07:13:04.676Z,0.30
2023-04-18T07:15:32.996Z,0.30
2023-04-18T07:18:01.272Z,0.20
2023-04-18T07:20:30.970Z,0.23
2023-04-18T07:23:00.556Z,0.20
2023-04-18T07:25:28.653Z,0.30
2023-04-18T07:27:56.607Z,0.20
2023-04-18T07:30:24.636Z,0.20
2023-04-18T07:32:52.728Z,0.20
2023-04-18T07:35:21.821Z,0.20
2023-04-18T07:37:49.951Z,0.20
2023-04-18T07:40:19.718Z,0.20
2023-04-18T07:42:47.782Z,0.20
2023-04-18T07:45:16.564Z,0.20
2023-04-18T07:47:44.661Z,0.23
2023-04-18T07:50:12.871Z,0.20
2023-04-18T07:52:40.894Z,0.30
2023-04-18T07:55:11.262Z,0.20
2023-04-18T07:57:41.075Z,0.20
2023-04-18T08:00:12.642Z,0.20
2023-04-18T08:02:42.892Z,0.20
2023-04-18T08:05:11.722Z,0.20
2023-04-18T08:07:39.814Z,0.20
2023-04-18T08:10:08.836Z,0.20
2023-04-18T08:12:38.347Z,0.20
2023-04-18T08:15:09.253Z,0.20
2023-04-18T08:17:38.893Z,0.23
2023-04-18T08:20:08.075Z,0.30
2023-04-18T08:22:46.822Z,0.30
2023-04-18T08:25:26.865Z,0.27
2023-04-18T08:28:00.558Z,0.27
2023-04-18T08:30:30.551Z,0.20
2023-04-18T08:32:58.788Z,0.20
2023-04-18T08:35:29.428Z,0.20
2023-04-18T08:38:08.841Z,0.30
2023-04-18T08:40:47.723Z,0.20
2023-04-18T08:43:16.723Z,0.20
2023-04-18T08:45:59.688Z,0.20
2023-04-18T08:48:41.284Z,0.20
2023-04-18T08:51:15.069Z,0.30
2023-04-18T08:53:45.104Z,0.20
2023-04-18T08:56:14.772Z,0.20
2023-04-18T08:58:45.246Z,0.30
2023-04-18T09:01:21.530Z,0.20
2023-04-18T09:03:50.553Z,0.20
2023-04-18T09:06:20.289Z,0.20
2023-04-18T09:09:03.979Z,0.20
2023-04-18T09:11:34.411Z,0.30
2023-04-18T09:14:04.860Z,0.30
2023-04-18T09:16:50.124Z,0.20
2023-04-18T09:19:18.884Z,0.30
2023-04-18T09:21:48.889Z,0.30
2023-04-18T09:24:20.729Z,0.27
2023-04-18T09:26:50.200Z,0.20
2023-04-18T09:29:22.323Z,0.20
2023-04-18T09:31:59.971Z,0.20
2023-04-18T09:34:29.051Z,0.20
2023-04-18T09:37:13.242Z,0.23
2023-04-18T09:39:43.505Z,0.20
2023-04-18T09:42:11.790Z,0.20
2023-04-18T09:44:40.080Z,0.20
2023-04-18T09:47:09.378Z,0.20
2023-04-18T09:49:37.562Z,0.20
2023-04-18T09:52:09.513Z,0.20
2023-04-18T09:54:39.837Z,0.20
2023-04-18T09:57:13.421Z,0.20
2023-04-18T09:59:47.683Z,0.20
2023-04-18T10:02:42.629Z,0.20
2023-04-18T10:05:11.358Z,0.20
2023-04-18T10:07:39.809Z,0.20
2023-04-18T10:10:09.209Z,0.20
2023-04-18T10:12:38.085Z,0.20
2023-04-18T10:15:08.102Z,0.20
2023-04-18T10:17:56.007Z,0.20
2023-04-18T10:20:30.980Z,0.20
2023-04-18T10:23:00.995Z,0.20
2023-04-18T10:25:51.823Z,0.20
2023-04-18T10:28:22.089Z,0.20
2023-04-18T10:31:02.968Z,0.20
2023-04-18T10:33:34.660Z,0.17
2023-04-18T10:36:05.748Z,0.20
2023-04-18T10:38:35.558Z,0.20
2023-04-18T10:41:22.170Z,0.20
2023-04-18T10:44:16.248Z,0.20
2023-04-18T10:47:05.191Z,0.20
2023-04-18T10:49:37.009Z,0.20
2023-04-18T10:52:06.093Z,0.20
2023-04-18T10:54:39.952Z,0.20
2023-04-18T10:57:09.025Z,0.20
2023-04-18T10:59:42.526Z,0.20
2023-04-18T11:02:28.920Z,0.20
2023-04-18T11:04:59.731Z,0.20
2023-04-18T11:07:35.312Z,0.20
2023-04-18T11:10:03.770Z,0.20
2023-04-18T11:12:34.691Z,0.27
2023-04-18T11:15:10.788Z,0.20
2023-04-18T11:17:40.944Z,0.20
2023-04-18T11:20:13.765Z,0.20
2023-04-18T11:22:50.896Z,0.20
2023-04-18T11:25:24.726Z,0.20
2023-04-18T11:27:53.166Z,0.10
2023-04-18T11:30:24.776Z,0.20
2023-04-18T11:32:54.157Z,0.20
2023-04-18T11:35:25.394Z,0.20
2023-04-18T11:37:56.159Z,0.10
2023-04-18T11:40:24.682Z,0.20
2023-04-18T11:42:55.958Z,0.10
2023-04-18T11:45:24.279Z,0.10
2023-04-18T11:47:57.632Z,0.20
2023-04-18T11:50:27.933Z,0.20
2023-04-18T11:52:59.328Z,0.20
2023-04-18T11:55:27.526Z,0.20
2023-04-18T11:57:56.507Z,0.20
2023-04-18T12:00:33.989Z,0.20
2023-04-18T12:03:15.754Z,0.20
2023-04-18T12:05:49.766Z,0.20
2023-04-18T12:08:21.661Z,0.20
2023-04-18T12:10:51.689Z,0.20
2023-04-18T12:13:20.569Z,0.20
2023-04-18T12:15:49.566Z,0.20
2023-04-18T12:18:19.880Z,0.20
2023-04-18T12:21:02.790Z,0.20
2023-04-18T12:23:35.533Z,0.20
2023-04-18T12:26:07.136Z,0.20
2023-04-18T12:28:36.617Z,0.20
2023-04-18T12:31:07.251Z,0.20
2023-04-18T12:33:37.243Z,0.20
2023-04-18T12:36:08.450Z,0.20
2023-04-18T12:38:36.681Z,0.20
2023-04-18T12:41:05.552Z,0.20
2023-04-18T12:43:33.565Z,0.20
2023-04-18T12:46:02.044Z,0.20
2023-04-18T12:48:30.958Z,0.20
2023-04-18T12:50:59.113Z,0.20
2023-04-18T12:53:32.507Z,0.20
2023-04-18T12:56:15.345Z,0.20
2023-04-18T12:58:44.138Z,0.20
2023-04-18T13:01:27.895Z,0.20
2023-04-18T13:04:11.814Z,0.20
2023-04-18T13:06:41.589Z,0.20
2023-04-18T13:09:33.519Z,0.20
2023-04-18T13:12:20.017Z,0.20
2023-04-18T13:15:14.111Z,0.20
2023-04-18T13:18:08.002Z,0.20
2023-04-18T13:20:37.297Z,0.20
2023-04-18T13:23:05.446Z,0.20
2023-04-18T13:25:35.979Z,0.20
2023-04-18T13:28:11.473Z,0.20
2023-04-18T13:30:53.344Z,0.20
2023-04-18T13:33:21.795Z,0.20
2023-04-18T13:35:50.812Z,0.20
2023-04-18T13:38:18.778Z,0.20
2023-04-18T13:40:58.105Z,0.20
2023-04-18T13:43:33.622Z,0.20
2023-04-18T13:46:01.738Z,0.20
2023-04-18T13:48:32.648Z,0.20
2023-04-18T13:51:00.711Z,0.20
2023-04-18T13:53:30.691Z,0.20
2023-04-18T13:56:01.715Z,0.10
2023-04-18T13:58:31.011Z,0.20
2023-04-18T14:00:59.185Z,0.20
2023-04-18T14:03:28.045Z,0.20
2023-04-18T14:05:59.402Z,0.10
2023-04-18T14:08:27.462Z,0.20
2023-04-18T14:10:55.515Z,0.10
2023-04-18T14:13:25.549Z,0.20
2023-04-18T14:15:56.245Z,0.20
2023-04-18T14:18:24.690Z,0.20
2023-04-18T14:20:52.817Z,0.20
2023-04-18T14:23:22.559Z,0.20
2023-04-18T14:25:51.975Z,0.20
2023-04-18T14:28:24.950Z,0.20
2023-04-18T14:30:57.909Z,0.20
2023-04-18T14:33:33.598Z,0.20
2023-04-18T14:36:04.553Z,0.20
2023-04-18T14:38:32.474Z,0.20
2023-04-18T14:41:00.712Z,0.20
2023-04-18T14:43:30.867Z,0.20
2023-04-18T14:46:01.935Z,0.20
2023-04-18T14:48:31.284Z,0.20
2023-04-18T14:51:02.475Z,0.20
2023-04-18T14:53:30.565Z,0.20
2023-04-18T14:55:58.797Z,0.20
2023-04-18T14:58:26.908Z,0.20
2023-04-18T15:00:54.947Z,0.20
2023-04-18T15:03:24.375Z,0.20
2023-04-18T15:05:53.249Z,0.20
2023-04-18T15:08:22.072Z,0.20
2023-04-18T15:10:51.041Z,0.20
2023-04-18T15:13:19.077Z,0.20
2023-04-18T15:15:53.121Z,0.20
2023-04-18T15:18:21.249Z,0.20
2023-04-18T15:20:50.584Z,0.20
2023-04-18T15:23:18.401Z,0.20
2023-04-18T15:25:49.445Z,0.10
2023-04-18T15:28:18.652Z,0.20
2023-04-18T15:30:47.803Z,0.20
2023-04-18T15:33:17.904Z,0.20
2023-04-18T15:35:46.001Z,0.20
2023-04-18T15:38:15.742Z,0.20
2023-04-18T15:40:45.043Z,0.20
2023-04-18T15:43:14.022Z,0.20
2023-04-18T15:45:44.299Z,0.20
2023-04-18T15:48:13.259Z,0.20
2023-04-18T15:50:41.984Z,0.20
2023-04-18T15:53:09.837Z,0.20
2023-04-18T15:55:39.915Z,0.20
2023-04-18T15:58:10.193Z,0.20
2023-04-18T16:00:38.110Z,0.20
2023-04-18T16:03:06.162Z,0.20
2023-04-18T16:05:34.322Z,0.20
2023-04-18T16:08:02.805Z,0.20
2023-04-18T16:10:33.023Z,0.20
2023-04-18T16:13:02.996Z,0.20
2023-04-18T16:15:32.023Z,0.20
2023-04-18T16:18:00.358Z,0.20
2023-04-18T16:20:33.444Z,0.20
2023-04-18T16:23:01.581Z,0.20
2023-04-18T16:25:29.469Z,0.20
2023-04-18T16:27:57.378Z,0.20
2023-04-18T16:30:26.630Z,0.20
2023-04-18T16:32:55.395Z,0.20
2023-04-18T16:35:23.845Z,0.20
2023-04-18T16:37:51.948Z,0.20
2023-04-18T16:40:19.944Z,0.20
2023-04-18T16:42:50.299Z,0.20
2023-04-18T16:45:18.351Z,0.20
2023-04-18T16:47:48.101Z,0.20
2023-04-18T16:50:16.388Z,0.20
2023-04-18T16:52:48.121Z,0.20
2023-04-18T16:55:17.177Z,0.20
2023-04-18T16:57:51.197Z,0.20
2023-04-18T17:00:22.431Z,0.30
2023-04-18T17:02:56.005Z,0.20
2023-04-18T17:05:24.157Z,0.20
2023-04-18T17:07:52.851Z,0.20
2023-04-18T17:10:20.984Z,0.20
2023-04-18T17:12:50.439Z,0.20
2023-04-18T17:15:33.191Z,0.20
2023-04-18T17:18:10.689Z,0.20
2023-04-18T17:20:38.685Z,0.20
2023-04-18T17:23:07.988Z,0.20
2023-04-18T17:25:52.469Z,0.10
2023-04-18T17:28:21.377Z,0.20
2023-04-18T17:30:54.547Z,0.20
2023-04-18T17:33:24.968Z,0.20
2023-04-18T17:35:54.479Z,0.20
2023-04-18T17:38:22.705Z,0.20
2023-04-18T17:41:04.593Z,0.20
2023-04-18T17:43:32.769Z,0.20
2023-04-18T17:46:03.808Z,0.20
2023-04-18T17:48:34.710Z,0.20
2023-04-18T17:51:03.524Z,0.20
2023-04-18T17:53:32.357Z,0.20
2023-04-18T17:56:00.625Z,0.30
2023-04-18T17:58:29.240Z,0.20
2023-04-18T18:00:58.641Z,0.20
2023-04-18T18:03:36.892Z,0.20
2023-04-18T18:06:06.120Z,0.20
2023-04-18T18:08:34.081Z,0.20
2023-04-18T18:11:02.503Z,0.20
2023-04-18T18:13:30.501Z,0.20
2023-04-18T18:15:58.523Z,0.30
2023-04-18T18:18:26.806Z,0.20
2023-04-18T18:20:57.927Z,0.20
2023-04-18T18:23:26.226Z,0.20
2023-04-18T18:25:54.272Z,0.20
2023-04-18T18:28:22.219Z,0.20
2023-04-18T18:30:50.401Z,0.20
2023-04-18T18:33:18.975Z,0.30
2023-04-18T18:35:50.594Z,0.30
2023-04-18T18:38:19.995Z,0.20
2023-04-18T18:40:47.972Z,0.20
2023-04-18T18:43:15.811Z,0.20
2023-04-18T18:45:43.732Z,0.20
2023-04-18T18:48:11.657Z,0.20
2023-04-18T18:50:41.899Z,0.20
2023-04-18T18:53:10.083Z,0.20
2023-04-18T18:55:39.424Z,0.30
2023-04-18T18:58:09.090Z,0.20
2023-04-18T19:00:39.889Z,0.20
2023-04-18T19:03:09.716Z,0.20
2023-04-18T19:05:38.027Z,0.20
2023-04-18T19:08:06.672Z,0.20
2023-04-18T19:10:34.711Z,0.20
2023-04-18T19:13:04.209Z,0.20
2023-04-18T19:15:32.804Z,0.20
2023-04-18T19:18:01.359Z,0.30
2023-04-18T19:20:29.828Z,0.20
2023-04-18T19:22:58.097Z,0.20
2023-04-18T19:25:26.195Z,0.20
2023-04-18T19:27:54.407Z,0.20
2023-04-18T19:30:25.000Z,0.20
2023-04-18T19:32:53.110Z,0.20
2023-04-18T19:35:21.157Z,0.20
2023-04-18T19:37:49.321Z,0.30
2023-04-18T19:40:17.402Z,0.20
2023-04-18T19:42:46.120Z,0.20
2023-04-18T19:45:17.398Z,0.20
2023-04-18T19:47:47.867Z,0.20
2023-04-18T19:50:15.919Z,0.20
2023-04-18T19:52:43.983Z,0.20
2023-04-18T19:55:12.648Z,0.23
2023-04-18T19:57:43.046Z,0.20
2023-04-18T20:00:14.717Z,0.30
2023-04-18T20:02:43.358Z,0.20
2023-04-18T20:05:13.407Z,0.27
2023-04-18T20:07:44.096Z,0.20
2023-04-18T20:10:12.875Z,0.20
2023-04-18T20:12:40.831Z,0.20
2023-04-18T20:15:09.785Z,0.20
2023-04-18T20:17:37.924Z,0.37
2023-04-18T20:20:09.434Z,0.30
2023-04-18T20:22:40.352Z,0.20
2023-04-18T20:25:12.675Z,0.30
2023-04-18T20:27:40.811Z,0.30
2023-04-18T20:30:10.398Z,0.30
2023-04-18T20:32:39.495Z,0.30
2023-04-18T20:35:08.517Z,0.30
2023-04-18T20:37:42.536Z,0.20
2023-04-18T20:40:11.401Z,0.30
2023-04-18T20:42:40.398Z,0.20
2023-04-18T20:45:11.097Z,0.30
2023-04-18T20:47:45.885Z,0.20
2023-04-18T20:50:20.498Z,0.30
2023-04-18T20:52:50.603Z,0.20
2023-04-18T20:55:28.476Z,0.30
2023-04-18T20:57:56.620Z,0.30
2023-04-18T21:00:27.313Z,0.30
2023-04-18T21:02:56.428Z,0.20
2023-04-18T21:05:25.038Z,0.30
2023-04-18T21:07:54.403Z,0.30
2023-04-18T21:10:22.370Z,0.30
2023-04-18T21:12:50.689Z,0.30
2023-04-18T21:15:19.257Z,0.30
2023-04-18T21:17:47.207Z,0.30
2023-04-18T21:20:18.152Z,0.23
2023-04-18T21:22:46.406Z,0.20
2023-04-18T21:25:16.613Z,0.30
2023-04-18T21:27:45.232Z,0.30
2023-04-18T21:30:13.807Z,0.30
2023-04-18T21:32:42.069Z,0.30
2023-04-18T21:35:11.075Z,0.40
2023-04-18T21:37:45.005Z,0.30
2023-04-18T21:40:19.326Z,0.30
2023-04-18T21:42:56.738Z,0.40
2023-04-18T21:45:34.789Z,0.33
2023-04-18T21:48:13.338Z,0.30
2023-04-18T21:50:56.497Z,0.30
2023-04-18T21:53:26.704Z,0.30
2023-04-18T21:55:57.332Z,0.30
2023-04-18T21:58:25.512Z,0.30
2023-04-18T22:00:54.921Z,0.30
2023-04-18T22:03:32.654Z,0.40
2023-04-18T22:06:01.740Z,0.30
2023-04-18T22:08:32.694Z,0.40
2023-04-18T22:11:09.905Z,0.30
2023-04-18T22:13:45.749Z,0.30
2023-04-18T22:16:18.934Z,0.30
2023-04-18T22:18:47.251Z,0.30
2023-04-18T22:21:20.468Z,0.20
2023-04-18T22:23:50.960Z,0.30
2023-04-18T22:26:24.091Z,0.30
2023-04-18T22:29:20.994Z,0.30
2023-04-18T22:31:52.065Z,0.30
2023-04-18T22:38:01.304Z,0.30
2023-04-18T22:40:29.350Z,0.30
2023-04-18T22:43:05.981Z,0.30
2023-04-18T22:45:34.665Z,0.30
2023-04-18T22:48:05.011Z,0.40
2023-04-18T22:50:33.063Z,0.30
2023-04-18T22:53:01.105Z,0.30
2023-04-18T22:55:29.062Z,0.27
2023-04-18T22:57:59.144Z,0.30
2023-04-18T23:00:27.258Z,0.30
2023-04-18T23:02:55.396Z,0.30
2023-04-18T23:05:23.695Z,0.30
2023-04-18T23:07:51.616Z,0.40
2023-04-18T23:10:19.655Z,0.30
2023-04-18T23:12:47.517Z,0.20
2023-04-18T23:15:17.014Z,0.30
2023-04-18T23:17:45.142Z,0.30
2023-04-18T23:20:13.909Z,0.30
2023-04-18T23:22:41.908Z,0.30
2023-04-18T23:25:10.254Z,0.30
2023-04-18T23:27:39.402Z,0.30
2023-04-18T23:30:09.447Z,0.30
2023-04-18T23:32:38.773Z,0.40
2023-04-18T23:35:07.419Z,0.30
2023-04-18T23:37:35.651Z,0.33
2023-04-18T23:40:06.950Z,0.30
2023-04-18T23:42:42.145Z,0.30
2023-04-18T23:45:10.740Z,0.37
2023-04-18T23:47:40.118Z,0.47
2023-04-18T23:50:09.461Z,0.30
2023-04-18T23:52:39.204Z,0.40
2023-04-18T23:55:08.223Z,0.30
2023-04-18T23:57:38.715Z,0.30
